createdAt,value
2023-07-29T00:01:43.297Z,24.14
2023-07-29T00:04:10.683Z,24.15
2023-07-29T00:06:38.002Z,24.16
2023-07-29T00:09:05.341Z,24.19
2023-07-29T00:11:34.748Z,24.22
2023-07-29T00:14:03.237Z,24.25
2023-07-29T00:16:30.294Z,24.28
2023-07-29T00:18:57.327Z,24.28
2023-07-29T00:21:24.447Z,24.31
2023-07-29T00:23:51.449Z,24.32
2023-07-29T00:26:18.577Z,24.34
2023-07-29T00:28:45.552Z,24.35
2023-07-29T00:31:13.859Z,24.37
2023-07-29T00:33:40.880Z,24.36
2023-07-29T00:36:07.817Z,24.39
2023-07-29T00:38:34.786Z,24.42
2023-07-29T00:41:04.152Z,24.46
2023-07-29T00:43:31.210Z,24.49
2023-07-29T00:46:00.732Z,24.54
2023-07-29T00:48:29.193Z,24.57
2023-07-29T00:50:56.585Z,24.56
2023-07-29T00:53:23.602Z,24.50
2023-07-29T00:55:50.841Z,24.47
2023-07-29T00:58:17.985Z,24.42
2023-07-29T01:00:44.986Z,24.36
2023-07-29T01:03:12.262Z,24.27
2023-07-29T01:05:57.399Z,24.20
2023-07-29T01:08:44.013Z,24.10
2023-07-29T01:11:31.678Z,23.98
2023-07-29T01:14:07.105Z,23.93
2023-07-29T01:16:44.025Z,23.85
2023-07-29T01:19:30.972Z,23.79
2023-07-29T01:22:00.803Z,23.77
2023-07-29T01:24:29.270Z,23.70
2023-07-29T01:26:56.337Z,23.62
2023-07-29T01:29:23.394Z,23.58
2023-07-29T01:31:57.244Z,23.55
2023-07-29T01:34:30.798Z,23.55
2023-07-29T01:37:03.372Z,23.53
2023-07-29T01:39:37.329Z,23.51
2023-07-29T01:42:04.995Z,23.53
2023-07-29T01:44:32.973Z,23.51
2023-07-29T01:47:01.100Z,23.46
2023-07-29T01:49:28.236Z,23.42
2023-07-29T01:51:55.237Z,23.39
2023-07-29T01:54:22.391Z,23.38
2023-07-29T01:56:52.125Z,23.39
2023-07-29T01:59:19.112Z,23.39
2023-07-29T02:01:47.468Z,23.35
2023-07-29T02:08:20.379Z,23.23
2023-07-29T02:10:47.357Z,23.31
2023-07-29T02:13:15.869Z,23.40
2023-07-29T02:15:42.861Z,23.40
2023-07-29T02:18:09.832Z,23.39
2023-07-29T02:20:36.826Z,23.39
2023-07-29T02:23:03.952Z,23.35
2023-07-29T02:25:30.925Z,23.31
2023-07-29T02:27:57.916Z,23.25
2023-07-29T02:30:26.260Z,23.18
2023-07-29T02:32:53.343Z,23.09
2023-07-29T02:35:20.406Z,23.06
2023-07-29T02:37:47.338Z,23.01
2023-07-29T02:40:14.463Z,22.98
2023-07-29T02:42:41.397Z,22.94
2023-07-29T02:45:11.232Z,22.88
2023-07-29T02:47:39.805Z,22.84
2023-07-29T02:50:07.894Z,22.80
2023-07-29T02:52:34.915Z,22.77
2023-07-29T02:55:01.901Z,22.77
2023-07-29T02:57:28.916Z,22.76
2023-07-29T02:59:55.853Z,22.75
2023-07-29T03:02:23.428Z,22.75
2023-07-29T03:04:51.895Z,22.71
2023-07-29T03:07:18.973Z,22.67
2023-07-29T03:09:46.188Z,22.64
2023-07-29T03:12:13.202Z,22.60
2023-07-29T03:14:42.325Z,22.57
2023-07-29T03:17:09.315Z,22.54
2023-07-29T03:19:36.430Z,22.51
2023-07-29T03:22:05.036Z,22.53
2023-07-29T03:24:32.020Z,22.53
2023-07-29T03:26:59.026Z,22.55
2023-07-29T03:29:26.088Z,22.57
2023-07-29T03:31:53.029Z,22.56
2023-07-29T03:34:20.038Z,22.56
2023-07-29T03:36:48.707Z,22.57
2023-07-29T03:39:16.999Z,22.61
2023-07-29T03:41:44.068Z,22.63
2023-07-29T03:44:11.047Z,22.66
2023-07-29T03:46:38.583Z,22.73
2023-07-29T03:49:05.918Z,22.79
2023-07-29T03:51:32.862Z,22.82
2023-07-29T03:53:59.791Z,22.86
2023-07-29T03:56:28.080Z,22.92
2023-07-29T03:59:03.246Z,22.96
2023-07-29T04:01:30.242Z,23.05
2023-07-29T04:03:57.382Z,23.11
2023-07-29T04:06:24.562Z,23.16
2023-07-29T04:08:51.760Z,23.20
2023-07-29T04:11:18.793Z,23.18
2023-07-29T04:13:47.081Z,23.18
2023-07-29T04:16:14.383Z,23.17
2023-07-29T04:18:41.389Z,23.18
2023-07-29T04:21:08.345Z,23.18
2023-07-29T04:23:36.220Z,23.24
2023-07-29T04:26:03.184Z,23.29
2023-07-29T04:28:30.405Z,23.32
2023-07-29T04:30:58.861Z,23.30
2023-07-29T04:33:25.844Z,23.27
2023-07-29T04:35:52.813Z,23.24
2023-07-29T04:38:19.756Z,23.24
2023-07-29T04:40:46.690Z,23.22
2023-07-29T04:43:13.627Z,23.23
2023-07-29T04:45:44.382Z,23.24
2023-07-29T04:48:12.761Z,23.24
2023-07-29T04:50:39.757Z,23.27
2023-07-29T04:53:06.785Z,23.26
2023-07-29T04:55:34.141Z,23.29
2023-07-29T04:58:01.242Z,23.31
2023-07-29T05:00:28.203Z,23.33
2023-07-29T05:02:55.241Z,23.30
2023-07-29T05:05:23.603Z,23.29
2023-07-29T05:07:50.553Z,23.29
2023-07-29T05:10:17.846Z,23.27
2023-07-29T05:12:44.873Z,23.26
2023-07-29T05:15:11.963Z,23.27
2023-07-29T05:17:39.310Z,23.28
2023-07-29T05:20:08.546Z,23.33
2023-07-29T05:22:36.864Z,23.39
2023-07-29T05:25:04.940Z,23.45
2023-07-29T05:27:31.862Z,23.50
2023-07-29T05:29:58.824Z,23.56
2023-07-29T05:32:25.871Z,23.62
2023-07-29T05:34:52.877Z,23.66
2023-07-29T05:37:19.828Z,23.71
2023-07-29T05:39:48.327Z,23.76
2023-07-29T05:42:15.392Z,23.80
2023-07-29T05:44:42.351Z,23.86
2023-07-29T05:47:09.841Z,23.89
2023-07-29T05:49:36.813Z,23.79
2023-07-29T05:52:04.083Z,23.76
2023-07-29T05:54:31.037Z,23.76
2023-07-29T05:56:59.585Z,23.77
2023-07-29T05:59:26.635Z,23.78
2023-07-29T06:01:53.584Z,23.74
2023-07-29T06:04:20.537Z,23.73
2023-07-29T06:06:47.567Z,23.76
2023-07-29T06:09:14.524Z,23.74
2023-07-29T06:11:41.479Z,23.78
2023-07-29T06:14:09.974Z,23.82
2023-07-29T06:16:37.153Z,23.80
2023-07-29T06:19:04.266Z,23.85
2023-07-29T06:21:31.430Z,23.91
2023-07-29T06:23:58.393Z,23.98
2023-07-29T06:26:25.348Z,24.09
2023-07-29T06:28:52.308Z,24.20
2023-07-29T06:31:20.657Z,24.31
2023-07-29T06:33:47.806Z,24.38
2023-07-29T06:36:14.774Z,24.45
2023-07-29T06:38:42.769Z,24.46
2023-07-29T06:41:11.653Z,24.48
2023-07-29T06:43:40.152Z,24.42
2023-07-29T06:46:07.216Z,24.38
2023-07-29T06:48:35.608Z,24.36
2023-07-29T06:51:03.371Z,24.34
2023-07-29T06:53:33.161Z,24.38
2023-07-29T06:56:01.926Z,24.45
2023-07-29T06:58:28.909Z,24.50
2023-07-29T07:00:57.566Z,24.58
2023-07-29T07:03:25.067Z,24.61
2023-07-29T07:05:53.662Z,24.61
2023-07-29T07:08:20.718Z,24.59
2023-07-29T07:10:48.609Z,24.65
2023-07-29T07:13:15.649Z,24.65
2023-07-29T07:15:42.650Z,24.63
2023-07-29T07:18:10.471Z,24.61
2023-07-29T07:20:37.861Z,24.61
2023-07-29T07:23:12.317Z,24.62
2023-07-29T07:25:39.367Z,24.70
2023-07-29T07:28:06.419Z,24.79
2023-07-29T07:30:33.427Z,24.84
2023-07-29T07:33:00.463Z,24.89
2023-07-29T07:35:27.819Z,25.00
2023-07-29T07:37:54.732Z,25.10
2023-07-29T07:40:23.071Z,25.20
2023-07-29T07:42:50.033Z,25.21
2023-07-29T07:45:18.875Z,25.21
2023-07-29T07:47:46.126Z,25.22
2023-07-29T07:50:13.185Z,25.20
2023-07-29T07:52:40.138Z,25.18
2023-07-29T07:55:09.320Z,25.22
2023-07-29T07:57:37.637Z,25.30
2023-07-29T08:00:06.460Z,25.30
2023-07-29T08:02:33.535Z,25.26
2023-07-29T08:05:00.475Z,25.22
2023-07-29T08:07:27.467Z,25.28
2023-07-29T08:09:54.475Z,25.48
2023-07-29T08:12:21.430Z,25.77
2023-07-29T08:14:49.771Z,26.19
2023-07-29T08:17:16.817Z,26.56
2023-07-29T08:19:43.758Z,27.09
2023-07-29T08:22:10.741Z,27.68
2023-07-29T08:24:37.675Z,28.01
2023-07-29T08:27:05.452Z,28.38
2023-07-29T08:29:32.436Z,28.81
2023-07-29T08:32:00.831Z,29.06
2023-07-29T08:34:27.933Z,28.86
2023-07-29T08:36:54.923Z,28.69
2023-07-29T08:39:22.970Z,28.60
2023-07-29T08:41:59.165Z,28.38
2023-07-29T08:44:32.452Z,28.19
2023-07-29T08:47:01.063Z,28.10
2023-07-29T08:49:29.656Z,28.12
2023-07-29T08:51:59.626Z,28.22
2023-07-29T08:54:26.926Z,28.38
2023-07-29T08:56:54.596Z,28.63
2023-07-29T08:59:22.264Z,29.14
2023-07-29T09:01:50.073Z,29.65
2023-07-29T09:04:18.769Z,30.26
2023-07-29T09:06:50.615Z,30.62
2023-07-29T09:09:17.715Z,30.77
2023-07-29T09:11:45.512Z,31.20
2023-07-29T09:14:14.332Z,31.52
2023-07-29T09:16:42.197Z,31.92
2023-07-29T09:19:09.385Z,32.24
2023-07-29T09:21:40.943Z,31.97
2023-07-29T09:24:09.439Z,31.39
2023-07-29T09:26:37.674Z,30.72
2023-07-29T09:29:05.048Z,30.21
2023-07-29T09:31:32.112Z,29.47
2023-07-29T09:34:01.016Z,29.25
2023-07-29T09:36:31.237Z,29.22
2023-07-29T09:39:00.417Z,29.72
2023-07-29T09:41:29.325Z,30.70
2023-07-29T09:44:02.686Z,31.68
2023-07-29T09:46:36.133Z,32.40
2023-07-29T09:49:05.051Z,32.90
2023-07-29T09:51:32.509Z,33.25
2023-07-29T09:54:04.701Z,33.20
2023-07-29T09:56:32.390Z,33.21
2023-07-29T09:58:59.563Z,33.77
2023-07-29T10:01:27.358Z,34.79
2023-07-29T10:03:58.081Z,35.74
2023-07-29T10:06:26.130Z,36.43
2023-07-29T10:08:53.908Z,36.72
2023-07-29T10:11:23.335Z,36.28
2023-07-29T10:14:05.050Z,35.57
2023-07-29T10:16:37.886Z,35.86
2023-07-29T10:19:05.934Z,36.23
2023-07-29T10:21:34.867Z,35.99
2023-07-29T10:24:06.971Z,35.79
2023-07-29T10:26:41.904Z,36.07
2023-07-29T10:29:15.501Z,36.73
2023-07-29T10:31:44.991Z,37.68
2023-07-29T10:34:13.892Z,38.49
2023-07-29T10:36:42.516Z,38.55
2023-07-29T10:39:11.668Z,37.80
2023-07-29T10:42:01.438Z,36.40
2023-07-29T10:44:50.559Z,35.10
2023-07-29T10:47:20.993Z,34.14
2023-07-29T10:49:51.373Z,33.24
2023-07-29T10:52:32.386Z,32.43
2023-07-29T10:55:00.058Z,31.82
2023-07-29T10:57:36.937Z,31.34
2023-07-29T11:00:06.476Z,31.05
2023-07-29T11:02:37.057Z,30.76
2023-07-29T11:05:08.140Z,30.55
2023-07-29T11:07:46.283Z,30.39
2023-07-29T11:10:14.890Z,30.28
2023-07-29T11:12:48.998Z,30.20
2023-07-29T11:15:19.977Z,30.13
2023-07-29T11:17:49.918Z,30.11
2023-07-29T11:20:18.931Z,30.00
2023-07-29T11:22:46.408Z,29.79
2023-07-29T11:25:15.610Z,29.63
2023-07-29T11:27:43.105Z,29.46
2023-07-29T11:30:13.676Z,29.36
2023-07-29T11:32:43.749Z,29.23
2023-07-29T11:35:13.937Z,29.16
2023-07-29T11:37:42.312Z,29.11
2023-07-29T11:40:11.416Z,29.07
2023-07-29T11:42:39.537Z,29.00
2023-07-29T11:45:08.967Z,29.04
2023-07-29T11:47:38.213Z,29.08
2023-07-29T11:50:07.844Z,29.01
2023-07-29T11:52:35.739Z,28.97
2023-07-29T11:55:04.725Z,28.91
2023-07-29T11:57:32.261Z,28.84
2023-07-29T11:59:59.418Z,28.85
2023-07-29T12:02:27.390Z,28.92
2023-07-29T12:04:58.150Z,28.93
2023-07-29T12:07:25.325Z,28.88
2023-07-29T12:09:53.823Z,28.87
2023-07-29T12:12:23.805Z,28.93
2023-07-29T12:14:50.891Z,29.01
2023-07-29T12:17:19.454Z,29.07
2023-07-29T12:19:46.608Z,29.06
2023-07-29T12:22:20.817Z,29.03
2023-07-29T12:24:48.121Z,29.05
2023-07-29T12:27:18.529Z,29.06
2023-07-29T12:29:47.648Z,29.12
2023-07-29T12:32:15.216Z,29.18
2023-07-29T12:34:42.433Z,29.25
2023-07-29T12:37:09.438Z,29.32
2023-07-29T12:39:43.297Z,29.39
2023-07-29T12:42:10.651Z,29.52
2023-07-29T12:44:39.345Z,29.70
2023-07-29T12:47:07.706Z,29.86
2023-07-29T12:49:34.700Z,29.99
2023-07-29T12:52:01.843Z,30.03
2023-07-29T12:54:28.941Z,30.01
2023-07-29T12:56:57.273Z,29.95
2023-07-29T12:59:24.292Z,29.91
2023-07-29T13:01:51.310Z,29.94
2023-07-29T13:04:18.294Z,29.98
2023-07-29T13:06:45.261Z,30.04
2023-07-29T13:09:12.252Z,30.08
2023-07-29T13:11:39.334Z,30.10
2023-07-29T13:14:07.652Z,30.12
2023-07-29T13:16:34.712Z,30.11
2023-07-29T13:19:01.668Z,30.11
2023-07-29T13:21:28.669Z,30.13
2023-07-29T13:23:55.633Z,30.15
2023-07-29T13:26:22.602Z,30.14
2023-07-29T13:28:49.625Z,30.11
2023-07-29T13:31:18.080Z,30.00
2023-07-29T13:33:45.091Z,29.88
2023-07-29T13:36:12.228Z,29.90
2023-07-29T13:38:39.227Z,30.25
2023-07-29T13:41:06.703Z,30.90
2023-07-29T13:43:33.775Z,31.41
2023-07-29T13:46:00.806Z,31.49
2023-07-29T13:48:29.230Z,31.37
2023-07-29T13:50:56.213Z,31.25
2023-07-29T13:53:23.179Z,31.31
2023-07-29T13:55:50.207Z,31.33
2023-07-29T13:58:17.189Z,31.24
2023-07-29T14:00:44.415Z,31.20
2023-07-29T14:03:11.436Z,31.10
2023-07-29T14:05:39.859Z,30.99
2023-07-29T14:08:07.035Z,30.89
2023-07-29T14:10:34.179Z,30.72
2023-07-29T14:13:01.155Z,30.60
2023-07-29T14:15:29.436Z,30.68
2023-07-29T14:17:56.438Z,30.74
2023-07-29T14:20:23.736Z,30.76
2023-07-29T14:22:52.105Z,30.71
2023-07-29T14:25:19.568Z,30.37
2023-07-29T14:27:46.530Z,30.32
2023-07-29T14:30:13.542Z,30.29
2023-07-29T14:32:40.740Z,30.27
2023-07-29T14:35:09.125Z,30.30
2023-07-29T14:37:36.554Z,30.37
2023-07-29T14:40:06.883Z,30.46
2023-07-29T14:42:36.022Z,30.55
2023-07-29T14:45:03.554Z,30.56
2023-07-29T14:47:35.635Z,30.53
2023-07-29T14:50:02.833Z,30.48
2023-07-29T14:52:29.872Z,30.41
2023-07-29T14:54:56.837Z,30.38
2023-07-29T14:57:25.335Z,30.33
2023-07-29T14:59:52.352Z,30.28
2023-07-29T15:02:19.409Z,30.21
2023-07-29T15:04:46.411Z,30.02
2023-07-29T15:07:13.435Z,29.73
2023-07-29T15:09:40.403Z,29.45
2023-07-29T15:12:09.059Z,29.19
2023-07-29T15:14:37.343Z,29.00
2023-07-29T15:17:05.371Z,28.82
2023-07-29T15:19:32.410Z,28.67
2023-07-29T15:21:59.367Z,28.50
2023-07-29T15:24:26.303Z,28.32
2023-07-29T15:26:53.272Z,28.13
2023-07-29T15:29:20.307Z,27.96
2023-07-29T15:31:48.823Z,27.82
2023-07-29T15:34:16.459Z,27.69
2023-07-29T15:36:43.425Z,27.57
2023-07-29T15:39:10.391Z,27.45
2023-07-29T15:41:37.378Z,27.35
2023-07-29T15:44:04.843Z,27.15
2023-07-29T15:46:31.892Z,26.94
2023-07-29T15:49:03.062Z,26.79
2023-07-29T15:51:30.003Z,26.67
2023-07-29T15:53:57.063Z,26.55
2023-07-29T15:56:24.124Z,26.50
2023-07-29T15:58:51.085Z,26.45
2023-07-29T16:01:18.070Z,26.40
2023-07-29T16:03:45.120Z,26.40
2023-07-29T16:06:13.498Z,26.40
2023-07-29T16:08:40.518Z,26.40
2023-07-29T16:11:07.728Z,26.39
2023-07-29T16:13:34.695Z,26.18
2023-07-29T16:16:01.732Z,25.65
2023-07-29T16:18:28.708Z,25.00
2023-07-29T16:21:02.333Z,24.46
2023-07-29T16:23:31.587Z,23.98
2023-07-29T16:25:58.633Z,23.65
2023-07-29T16:28:25.639Z,23.41
2023-07-29T16:30:53.161Z,23.20
2023-07-29T16:33:20.189Z,23.03
2023-07-29T16:35:47.210Z,22.97
2023-07-29T16:38:14.251Z,22.90
2023-07-29T16:40:53.783Z,22.82
2023-07-29T16:43:29.509Z,22.80
2023-07-29T16:45:56.570Z,22.85
2023-07-29T16:48:24.136Z,22.92
2023-07-29T16:50:51.188Z,23.01
2023-07-29T16:53:18.220Z,23.08
2023-07-29T16:55:47.496Z,23.15
2023-07-29T16:58:14.565Z,23.23
2023-07-29T17:00:41.615Z,23.33
2023-07-29T17:03:08.731Z,23.43
2023-07-29T17:05:35.955Z,23.53
2023-07-29T17:08:02.974Z,23.62
2023-07-29T17:10:29.926Z,23.71
2023-07-29T17:12:58.206Z,23.79
2023-07-29T17:15:25.282Z,23.86
2023-07-29T17:17:53.214Z,23.93
2023-07-29T17:20:20.896Z,24.00
2023-07-29T17:22:47.879Z,24.10
2023-07-29T17:25:14.968Z,24.20
2023-07-29T17:27:41.907Z,24.29
2023-07-29T17:30:11.700Z,24.37
2023-07-29T17:32:38.680Z,24.42
2023-07-29T17:35:06.676Z,24.48
2023-07-29T17:37:33.619Z,24.52
2023-07-29T17:40:00.649Z,24.57
2023-07-29T17:42:27.652Z,24.64
2023-07-29T17:44:54.791Z,24.66
2023-07-29T17:47:23.199Z,24.68
2023-07-29T17:49:50.177Z,24.66
2023-07-29T17:52:17.106Z,24.64
2023-07-29T17:54:44.081Z,24.59
2023-07-29T17:57:11.027Z,24.57
2023-07-29T17:59:39.066Z,24.62
2023-07-29T18:02:07.009Z,24.69
2023-07-29T18:04:35.363Z,24.63
2023-07-29T18:07:02.472Z,24.60
2023-07-29T18:09:29.629Z,24.54
2023-07-29T18:12:00.046Z,24.52
2023-07-29T18:14:27.063Z,24.54
2023-07-29T18:16:54.134Z,24.53
2023-07-29T18:19:25.584Z,24.50
2023-07-29T18:21:53.864Z,24.53
2023-07-29T18:24:20.893Z,24.53
2023-07-29T18:26:47.882Z,24.56
2023-07-29T18:29:14.864Z,24.60
2023-07-29T18:31:41.924Z,24.62
2023-07-29T18:34:08.899Z,24.64
2023-07-29T18:36:35.941Z,24.63
2023-07-29T18:39:06.142Z,24.60
2023-07-29T18:41:33.442Z,24.56
2023-07-29T18:44:00.407Z,24.53
2023-07-29T18:46:29.086Z,24.48
2023-07-29T18:48:56.597Z,24.45
2023-07-29T18:51:23.743Z,24.42
2023-07-29T18:53:50.681Z,24.39
2023-07-29T18:56:19.006Z,24.39
2023-07-29T18:58:46.010Z,24.36
2023-07-29T19:01:13.008Z,24.34
2023-07-29T19:03:42.721Z,24.34
2023-07-29T19:06:10.034Z,24.31
2023-07-29T19:08:37.151Z,24.31
2023-07-29T19:11:04.148Z,24.31
2023-07-29T19:13:32.499Z,24.31
2023-07-29T19:15:59.589Z,24.30
2023-07-29T19:18:26.677Z,24.30
2023-07-29T19:20:54.796Z,24.31
2023-07-29T19:23:22.091Z,24.28
2023-07-29T19:25:51.366Z,24.27
2023-07-29T19:28:18.933Z,24.25
2023-07-29T19:30:47.240Z,24.18
2023-07-29T19:33:14.233Z,24.14
2023-07-29T19:35:41.248Z,24.07
2023-07-29T19:38:08.210Z,23.99
2023-07-29T19:40:35.590Z,23.95
2023-07-29T19:43:03.253Z,23.92
2023-07-29T19:45:30.271Z,23.89
2023-07-29T19:47:58.702Z,23.88
2023-07-29T19:50:26.359Z,23.89
2023-07-29T19:52:53.310Z,23.88
2023-07-29T19:55:20.300Z,23.84
2023-07-29T19:57:47.245Z,23.79
2023-07-29T20:00:14.804Z,23.72
2023-07-29T20:02:41.843Z,23.62
2023-07-29T20:05:10.546Z,23.55
2023-07-29T20:07:37.497Z,23.46
2023-07-29T20:10:06.298Z,23.39
2023-07-29T20:12:33.418Z,23.33
2023-07-29T20:15:04.226Z,23.29
2023-07-29T20:17:32.196Z,23.24
2023-07-29T20:19:59.271Z,23.20
2023-07-29T20:22:27.570Z,23.16
2023-07-29T20:24:54.596Z,23.07
2023-07-29T20:27:21.544Z,23.06
2023-07-29T20:29:48.516Z,23.06
2023-07-29T20:32:15.497Z,23.04
2023-07-29T20:34:42.462Z,23.05
2023-07-29T20:37:09.384Z,23.08
2023-07-29T20:39:37.749Z,23.10
2023-07-29T20:42:05.532Z,23.12
2023-07-29T20:44:33.551Z,23.15
2023-07-29T20:47:02.213Z,23.14
2023-07-29T20:49:29.296Z,23.12
2023-07-29T20:51:56.249Z,23.11
2023-07-29T20:54:23.197Z,23.10
2023-07-29T20:56:51.488Z,23.07
2023-07-29T20:59:18.449Z,23.05
2023-07-29T21:01:45.921Z,23.04
2023-07-29T21:04:13.075Z,23.05
2023-07-29T21:06:40.022Z,23.03
2023-07-29T21:09:06.989Z,23.00
2023-07-29T21:11:33.987Z,22.97
2023-07-29T21:14:02.312Z,22.95
2023-07-29T21:16:29.403Z,22.94
2023-07-29T21:18:56.533Z,22.90
2023-07-29T21:21:23.509Z,22.90
2023-07-29T21:23:50.576Z,22.93
2023-07-29T21:26:18.821Z,22.94
2023-07-29T21:28:45.825Z,22.97
2023-07-29T21:31:16.947Z,23.01
2023-07-29T21:33:45.105Z,23.09
2023-07-29T21:36:12.084Z,23.13
2023-07-29T21:38:39.200Z,23.13
2023-07-29T21:41:06.198Z,23.16
2023-07-29T21:43:33.414Z,23.20
2023-07-29T21:46:00.440Z,23.18
2023-07-29T21:48:29.103Z,23.18
2023-07-29T21:50:57.680Z,23.16
2023-07-29T21:53:25.290Z,23.18
2023-07-29T21:55:52.765Z,23.21
2023-07-29T21:58:19.878Z,23.24
2023-07-29T22:00:52.777Z,23.23
2023-07-29T22:03:19.805Z,23.23
2023-07-29T22:05:48.148Z,23.17
2023-07-29T22:08:17.109Z,23.14
2023-07-29T22:10:44.203Z,23.15
2023-07-29T22:13:11.268Z,23.10
2023-07-29T22:15:39.088Z,23.03
2023-07-29T22:18:06.152Z,22.94
2023-07-29T22:20:33.181Z,22.80
2023-07-29T22:23:01.525Z,22.72
2023-07-29T22:25:28.518Z,22.68
2023-07-29T22:27:55.776Z,22.64
2023-07-29T22:30:24.594Z,22.62
2023-07-29T22:32:53.594Z,22.62
2023-07-29T22:35:20.715Z,22.62
2023-07-29T22:37:47.706Z,22.63
2023-07-29T22:40:18.091Z,22.66
2023-07-29T22:42:45.108Z,22.74
2023-07-29T22:45:12.184Z,22.78
2023-07-29T22:47:39.262Z,22.85
2023-07-29T22:50:07.246Z,22.89
2023-07-29T22:52:34.282Z,22.94
2023-07-29T22:55:01.288Z,22.99
2023-07-29T22:57:29.585Z,23.06
2023-07-29T22:59:56.667Z,23.09
2023-07-29T23:02:23.812Z,23.10
2023-07-29T23:04:50.816Z,23.14
2023-07-29T23:07:17.836Z,23.19
2023-07-29T23:09:44.979Z,23.22
2023-07-29T23:12:11.948Z,23.25
2023-07-29T23:14:42.052Z,23.27
2023-07-29T23:17:10.206Z,23.29
2023-07-29T23:19:37.135Z,23.30
2023-07-29T23:22:04.610Z,23.30
2023-07-29T23:24:31.623Z,23.29
2023-07-29T23:26:58.601Z,23.28
2023-07-29T23:29:25.529Z,23.25
2023-07-29T23:31:55.724Z,23.25
2023-07-29T23:34:22.756Z,23.27
2023-07-29T23:36:49.723Z,23.27
2023-07-29T23:39:16.723Z,23.24
2023-07-29T23:41:43.648Z,23.17
2023-07-29T23:44:10.596Z,23.07
2023-07-29T23:46:37.555Z,22.98
2023-07-29T23:49:05.911Z,22.84
2023-07-29T23:51:32.878Z,22.74
2023-07-29T23:53:59.858Z,22.65
2023-07-29T23:56:26.837Z,22.61
2023-07-29T23:58:53.786Z,22.57
